» Metar & Tafor

18 Oktober 2018
METAR
Pukul : 06.00 UTC
Isi :
METAR WAGI 180600Z 25003KT 8000 TS FEW012CB BKN012 31/25 Q1009 RMK CB TO SE=

30 Agustus 2018
TAFOR
Pukul : 06-18
Isi :

TAF WAGI 180500Z 1806/1818 00000KT 9999 BKN012 TEMPO 1806/1810 3000 -TSRA FEW012CB BKN012=


Hal: << First | < Prev | 1 | Next > | Last >>